Weather Data

Pearl Creek Farm: 8878 N Farm Road 75, Walnut Grove MO 65770

<== Previous Day (Thursday 09 Jan 2014) | Next Day (Saturday 11 Jan 2014) ==>

Summary Precipitation Data For Friday 10 January 2014

ElementValueUnits
PrecipitationT
New Snow Depth0"
New Snow Water Equivalent0"
Total Snow Depth2"
Total Snow Water Equivalent*0"
NotesMostly fog, but some rain or drizzle resulted in a small amount of precipitation in the rain gauge.
SourcePearl Creek Farm

* Total Snow Water Equivalent is not measured every day.

Summary Temperature Data For Friday 10 January 2014

ElementValueUnits
High Temperature48 oF
Low Temperature35 oF
Average Temperature41 oF
High Humidity96 %
Low Humidity86 %
Average Humidity94 %
SourcePearl Creek Farm

Detail Temperature Data For Friday 10 January 2014

Date / TimeTemp (F)RH (%)Dew Pt (F)Report Date / TimeSource
2014-01-10 00:00:00 35 92 32.8 2014-02-09 14:43:36 Pearl Creek Farm
2014-01-10 00:30:00 35 92 32.8 2014-02-09 14:43:36 Pearl Creek Farm
2014-01-10 01:00:00 35 92 32.8 2014-02-09 14:43:36 Pearl Creek Farm
2014-01-10 01:30:00 35 92 32.8 2014-02-09 14:43:36 Pearl Creek Farm
2014-01-10 02:00:00 35 92 32.9 2014-02-09 14:43:36 Pearl Creek Farm
2014-01-10 02:30:00 35 92 32.9 2014-02-09 14:43:36 Pearl Creek Farm
2014-01-10 03:00:00 35 93 33.1 2014-02-09 14:43:36 Pearl Creek Farm
2014-01-10 03:30:00 35 93 33.1 2014-02-09 14:43:36 Pearl Creek Farm
2014-01-10 04:00:00 36 93 34.2 2014-02-09 14:43:36 Pearl Creek Farm
2014-01-10 04:30:00 36 93 34.2 2014-02-09 14:43:36 Pearl Creek Farm
2014-01-10 05:00:00 36 94 34.3 2014-02-09 14:43:36 Pearl Creek Farm
2014-01-10 05:30:00 36 94 34.3 2014-02-09 14:43:36 Pearl Creek Farm
2014-01-10 06:00:00 37 94 35.4 2014-02-09 14:43:36 Pearl Creek Farm
2014-01-10 06:30:00 37 94 35.4 2014-02-09 14:43:36 Pearl Creek Farm
2014-01-10 07:00:00 38 95 36.6 2014-02-09 14:43:36 Pearl Creek Farm
2014-01-10 07:30:00 38 95 36.6 2014-02-09 14:43:36 Pearl Creek Farm
2014-01-10 08:00:00 39 95 37.6 2014-02-09 14:43:36 Pearl Creek Farm
2014-01-10 08:30:00 40 95 38.7 2014-02-09 14:43:36 Pearl Creek Farm
2014-01-10 09:00:00 41 95 39.7 2014-02-09 14:43:36 Pearl Creek Farm
2014-01-10 09:30:00 41 95 39.5 2014-02-09 14:43:36 Pearl Creek Farm
2014-01-10 10:00:00 42 95 40.5 2014-02-09 14:43:36 Pearl Creek Farm
2014-01-10 10:30:00 41 95 39.5 2014-02-09 14:43:36 Pearl Creek Farm
2014-01-10 11:00:00 43 96 41.8 2014-02-09 14:43:36 Pearl Creek Farm
2014-01-10 11:30:00 43 95 41.7 2014-02-09 14:43:36 Pearl Creek Farm
2014-01-10 12:00:00 44 95 42.7 2014-02-09 14:43:36 Pearl Creek Farm
2014-01-10 12:30:00 45 95 43.7 2014-02-09 14:43:36 Pearl Creek Farm
2014-01-10 13:00:00 47 96 45.8 2014-02-09 14:43:36 Pearl Creek Farm
2014-01-10 13:30:00 47 96 45.8 2014-02-09 14:43:36 Pearl Creek Farm
2014-01-10 14:00:00 48 95 46.6 2014-02-09 14:43:36 Pearl Creek Farm
2014-01-10 14:30:00 48 94 46.4 2014-02-09 14:43:36 Pearl Creek Farm
2014-01-10 15:00:00 48 94 46.4 2014-02-09 14:43:36 Pearl Creek Farm
2014-01-10 15:30:00 48 94 46.4 2014-02-09 14:43:36 Pearl Creek Farm
2014-01-10 16:00:00 48 94 46.4 2014-02-09 14:43:36 Pearl Creek Farm
2014-01-10 16:30:00 48 94 46.4 2014-02-09 14:43:36 Pearl Creek Farm
2014-01-10 17:00:00 48 94 46.4 2014-02-09 14:43:36 Pearl Creek Farm
2014-01-10 17:30:00 48 94 46.4 2014-02-09 14:43:36 Pearl Creek Farm
2014-01-10 18:00:00 48 94 46.4 2014-02-09 14:43:36 Pearl Creek Farm
2014-01-10 18:30:00 48 95 46.6 2014-02-09 14:43:36 Pearl Creek Farm
2014-01-10 19:00:00 47 94 45.4 2014-02-09 14:43:36 Pearl Creek Farm
2014-01-10 19:30:00 47 95 45.5 2014-02-09 14:43:36 Pearl Creek Farm
2014-01-10 20:00:00 48 96 46.8 2014-02-09 14:43:36 Pearl Creek Farm
2014-01-10 20:30:00 47 89 43.8 2014-02-09 14:43:36 Pearl Creek Farm
2014-01-10 21:00:00 43 86 39.1 2014-02-09 14:43:36 Pearl Creek Farm
2014-01-10 21:30:00 41 89 37.9 2014-02-09 14:43:36 Pearl Creek Farm
2014-01-10 22:00:00 39 90 36.2 2014-02-09 14:43:36 Pearl Creek Farm
2014-01-10 22:30:00 37 91 34.5 2014-02-09 14:43:36 Pearl Creek Farm
2014-01-10 23:00:00 36 91 33.6 2014-02-09 14:43:36 Pearl Creek Farm
2014-01-10 23:30:00 35 92 32.8 2014-02-09 14:43:36 Pearl Creek Farm

A total of 48 rows are displayed.